createdAt,value
2019-02-27T00:00:52.513Z,19.19
2019-02-27T00:02:02.216Z,19.22
2019-02-27T00:03:12.174Z,19.18
2019-02-27T00:04:22.106Z,19.13
2019-02-27T00:05:31.612Z,19.21
2019-02-27T00:06:40.795Z,19.08
2019-02-27T00:07:56.572Z,19.1
2019-02-27T00:09:05.761Z,19.07
2019-02-27T00:10:15.695Z,19.1
2019-02-27T00:11:25.386Z,19.1
2019-02-27T00:12:35.081Z,19.04
2019-02-27T00:13:45.012Z,19.1
2019-02-27T00:14:54.447Z,19.1
2019-02-27T00:16:03.883Z,19.08
2019-02-27T00:17:20.279Z,19.11
2019-02-27T00:18:29.739Z,19.04
2019-02-27T00:19:39.448Z,19.06
2019-02-27T00:20:49.138Z,19.11
2019-02-27T00:21:58.584Z,19.06
2019-02-27T00:23:08.533Z,19.06
2019-02-27T00:24:17.980Z,19.07
2019-02-27T00:25:27.667Z,19
2019-02-27T00:26:44.588Z,18.98
2019-02-27T00:27:54.778Z,18.95
2019-02-27T00:29:04.724Z,19.04
2019-02-27T00:30:14.681Z,19.02
2019-02-27T00:31:24.646Z,18.99
2019-02-27T00:32:34.338Z,18.99
2019-02-27T00:33:44.284Z,18.95
2019-02-27T00:34:53.985Z,18.95
2019-02-27T00:36:03.420Z,18.98
2019-02-27T00:37:21.286Z,18.95
2019-02-27T00:38:31.238Z,18.92
2019-02-27T00:39:40.200Z,18.94
2019-02-27T00:40:49.890Z,18.95
2019-02-27T00:41:59.567Z,18.91
2019-02-27T00:43:09.509Z,18.91
2019-02-27T00:44:19.193Z,18.91
2019-02-27T00:45:29.131Z,18.98
2019-02-27T00:46:39.082Z,18.95
2019-02-27T00:47:57.787Z,18.88
2019-02-27T00:49:07.720Z,18.95
2019-02-27T00:50:17.659Z,18.94
2019-02-27T00:51:27.376Z,18.95
2019-02-27T00:52:37.317Z,18.95
2019-02-27T00:53:47.001Z,18.87
2019-02-27T00:54:56.949Z,18.91
2019-02-27T00:56:11.901Z,18.87
2019-02-27T00:57:25.531Z,18.84
2019-02-27T00:58:35.211Z,18.84
2019-02-27T00:59:44.652Z,18.82
2019-02-27T01:00:54.103Z,18.85
2019-02-27T01:02:03.539Z,18.88
2019-02-27T01:03:13.223Z,18.87
2019-02-27T01:04:22.418Z,18.81
2019-02-27T01:05:32.374Z,18.88
2019-02-27T01:06:49.687Z,18.87
2019-02-27T01:07:59.542Z,18.84
2019-02-27T01:09:11.264Z,18.84
2019-02-27T01:10:20.970Z,18.85
2019-02-27T01:11:30.683Z,18.8
2019-02-27T01:12:39.872Z,18.76
2019-02-27T01:13:49.805Z,18.73
2019-02-27T01:14:59.752Z,18.73
2019-02-27T01:16:09.458Z,18.72
2019-02-27T01:17:25.985Z,18.76
2019-02-27T01:18:36.223Z,18.8
2019-02-27T01:19:47.650Z,18.75
2019-02-27T01:20:57.593Z,18.75
2019-02-27T01:22:07.523Z,18.81
2019-02-27T01:23:17.470Z,18.78
2019-02-27T01:24:27.150Z,18.69
2019-02-27T01:25:36.828Z,18.69
2019-02-27T01:26:46.759Z,18.67
2019-02-27T01:27:56.192Z,18.65
2019-02-27T01:29:06.892Z,18.69
2019-02-27T01:30:16.343Z,18.65
2019-02-27T01:31:29.252Z,18.7
2019-02-27T01:32:39.181Z,18.7
2019-02-27T01:33:49.139Z,18.65
2019-02-27T01:34:58.831Z,18.75
2019-02-27T01:36:08.769Z,18.69
2019-02-27T01:37:18.460Z,18.62
2019-02-27T01:38:28.391Z,18.75
2019-02-27T01:39:37.819Z,18.73
2019-02-27T01:40:53.790Z,18.63
2019-02-27T01:42:03.491Z,18.65
2019-02-27T01:43:13.195Z,18.65
2019-02-27T01:44:22.894Z,18.63
2019-02-27T01:45:32.591Z,18.65
2019-02-27T01:46:42.542Z,18.58
2019-02-27T01:47:52.476Z,18.65
2019-02-27T01:49:02.180Z,18.6
2019-02-27T01:50:11.868Z,18.65
2019-02-27T01:51:21.562Z,18.58
2019-02-27T01:52:38.859Z,18.54
2019-02-27T01:53:48.809Z,18.57
2019-02-27T01:54:58.769Z,18.6
2019-02-27T01:56:08.708Z,18.54
2019-02-27T01:57:18.651Z,18.54
2019-02-27T01:58:28.346Z,18.58
2019-02-27T01:59:37.791Z,18.54
2019-02-27T02:00:47.492Z,18.54
2019-02-27T02:02:05.725Z,18.51
2019-02-27T02:03:18.130Z,18.57
2019-02-27T02:04:27.819Z,18.58
2019-02-27T02:05:37.002Z,18.54
2019-02-27T02:06:46.684Z,18.54
2019-02-27T02:07:55.900Z,18.51
2019-02-27T02:09:05.582Z,18.54
2019-02-27T02:10:15.270Z,18.55
2019-02-27T02:11:24.704Z,18.5
2019-02-27T02:12:34.649Z,18.47
2019-02-27T02:13:53.047Z,18.41
2019-02-27T02:15:02.531Z,18.52
2019-02-27T02:16:12.215Z,18.44
2019-02-27T02:17:21.661Z,18.47
2019-02-27T02:18:31.360Z,18.54
2019-02-27T02:19:41.058Z,18.45
2019-02-27T02:20:50.996Z,18.47
2019-02-27T02:22:00.674Z,18.45
2019-02-27T02:23:16.619Z,18.47
2019-02-27T02:24:26.213Z,18.48
2019-02-27T02:25:35.907Z,18.39
2019-02-27T02:26:45.836Z,18.42
2019-02-27T02:27:55.521Z,18.36
2019-02-27T02:29:05.215Z,18.47
2019-02-27T02:30:14.970Z,18.44
2019-02-27T02:31:24.965Z,18.44
2019-02-27T02:32:34.660Z,18.41
2019-02-27T02:33:44.344Z,18.41
2019-02-27T02:34:53.807Z,18.41
2019-02-27T02:36:03.527Z,18.44
2019-02-27T02:37:13.255Z,18.39
2019-02-27T02:38:23.004Z,18.33
2019-02-27T02:39:32.690Z,18.35
2019-02-27T02:40:42.632Z,18.37
2019-02-27T02:41:53.154Z,18.29
2019-02-27T02:43:06.940Z,18.33
2019-02-27T02:44:20.580Z,18.32
2019-02-27T02:45:35.340Z,18.35
2019-02-27T02:46:49.867Z,18.39
2019-02-27T02:48:01.196Z,18.33
2019-02-27T02:49:13.305Z,18.3
2019-02-27T02:50:23.339Z,18.29
2019-02-27T02:51:34.702Z,18.29
2019-02-27T02:52:46.316Z,18.3
2019-02-27T02:54:03.209Z,18.26
2019-02-27T02:55:17.044Z,18.3
2019-02-27T02:56:29.453Z,18.35
2019-02-27T02:57:41.736Z,18.32
2019-02-27T02:58:53.492Z,18.3
2019-02-27T03:00:05.689Z,18.3
2019-02-27T03:01:18.900Z,18.36
2019-02-27T03:02:32.212Z,18.17
2019-02-27T03:03:42.207Z,18.26
2019-02-27T03:04:53.907Z,18.33
2019-02-27T03:06:04.879Z,18.33
2019-02-27T03:07:15.860Z,18.27
2019-02-27T03:08:25.914Z,18.26
2019-02-27T03:09:36.556Z,18.3
2019-02-27T03:10:48.469Z,18.23
2019-02-27T03:12:00.380Z,18.32
2019-02-27T03:13:12.058Z,18.3
2019-02-27T03:14:23.306Z,18.21
2019-02-27T03:15:34.144Z,18.27
2019-02-27T03:16:46.993Z,18.27
2019-02-27T03:17:59.701Z,18.17
2019-02-27T03:19:11.144Z,18.15
2019-02-27T03:20:22.493Z,18.18
2019-02-27T03:21:33.684Z,18.3
2019-02-27T03:22:46.438Z,18.27
2019-02-27T03:23:57.370Z,18.15
2019-02-27T03:25:09.674Z,18.2
2019-02-27T03:26:22.380Z,18.17
2019-02-27T03:27:35.504Z,18.21
2019-02-27T03:28:46.294Z,18.11
2019-02-27T03:29:58.059Z,18.27
2019-02-27T03:31:19.348Z,18.2
2019-02-27T03:32:29.435Z,18.12
2019-02-27T03:33:49.307Z,18.18
2019-02-27T03:34:59.064Z,18.15
2019-02-27T03:36:09.261Z,18.23
2019-02-27T03:37:19.225Z,18.11
2019-02-27T03:38:29.645Z,18.25
2019-02-27T03:39:40.431Z,18.23
2019-02-27T03:40:53.351Z,18.2
2019-02-27T03:42:04.305Z,18.29
2019-02-27T03:43:16.094Z,18.23
2019-02-27T03:44:26.447Z,18.25
2019-02-27T03:45:36.664Z,18.26
2019-02-27T03:46:46.805Z,18.26
2019-02-27T03:47:57.441Z,18.29
2019-02-27T03:49:09.223Z,18.1
2019-02-27T03:50:20.412Z,18.23
2019-02-27T03:51:30.188Z,18.21
2019-02-27T03:52:42.000Z,18.21
2019-02-27T03:53:51.999Z,18.23
2019-02-27T03:55:03.169Z,18.21
2019-02-27T03:56:14.607Z,18.26
2019-02-27T03:57:25.294Z,18.18
2019-02-27T03:58:36.013Z,18.14
2019-02-27T03:59:48.462Z,18.14
2019-02-27T04:00:58.982Z,18.14
2019-02-27T04:02:11.606Z,18.2
2019-02-27T04:03:23.180Z,18.14
2019-02-27T04:04:35.600Z,18.18
2019-02-27T04:05:48.774Z,18.15
2019-02-27T04:07:01.650Z,18.2
2019-02-27T04:08:13.603Z,18.14
2019-02-27T04:09:24.870Z,18.18
2019-02-27T04:10:36.889Z,18.2
2019-02-27T04:11:47.374Z,18.15
2019-02-27T04:12:57.219Z,18.18
2019-02-27T04:14:09.940Z,18.21
2019-02-27T04:15:23.590Z,18.14
2019-02-27T04:16:37.784Z,18.12
2019-02-27T04:17:54.481Z,18.14
2019-02-27T04:19:07.749Z,18.14
2019-02-27T04:20:20.338Z,18.1
2019-02-27T04:21:30.386Z,18.21
2019-02-27T04:22:42.087Z,18.07
2019-02-27T04:23:53.768Z,18.15
2019-02-27T04:25:03.463Z,18.12
2019-02-27T04:26:13.169Z,18.05
2019-02-27T04:27:26.103Z,18.15
2019-02-27T04:28:36.076Z,18.1
2019-02-27T04:29:46.685Z,18.1
2019-02-27T04:30:56.910Z,18.12
2019-02-27T04:32:09.496Z,18.12
2019-02-27T04:33:27.952Z,18.1
2019-02-27T04:34:38.536Z,18.07
2019-02-27T04:35:47.983Z,18.08
2019-02-27T04:36:57.417Z,18.12
2019-02-27T04:38:06.863Z,18.1
2019-02-27T04:39:16.544Z,18.05
2019-02-27T04:40:25.977Z,18.08
2019-02-27T04:41:35.911Z,18.05
2019-02-27T04:42:45.598Z,18
2019-02-27T04:43:55.029Z,18
2019-02-27T04:45:05.045Z,17.97
2019-02-27T04:46:23.832Z,18
2019-02-27T04:47:34.539Z,18
2019-02-27T04:48:44.476Z,17.97
2019-02-27T04:49:54.168Z,18.02
2019-02-27T04:51:04.120Z,18
2019-02-27T04:52:14.051Z,18.03
2019-02-27T04:53:23.987Z,18.03
2019-02-27T04:54:43.845Z,17.99
2019-02-27T04:55:55.108Z,18.02
2019-02-27T04:57:05.037Z,17.97
2019-02-27T04:58:14.482Z,18
2019-02-27T04:59:24.162Z,17.97
2019-02-27T05:00:33.615Z,17.97
2019-02-27T05:01:43.318Z,18
2019-02-27T05:02:57.797Z,17.95
2019-02-27T05:04:07.484Z,18
2019-02-27T05:05:17.164Z,17.99
2019-02-27T05:06:26.342Z,17.93
2019-02-27T05:07:36.334Z,17.95
2019-02-27T05:08:46.015Z,17.93
2019-02-27T05:09:55.704Z,17.9
2019-02-27T05:11:05.503Z,17.93
2019-02-27T05:12:19.253Z,17.93
2019-02-27T05:13:28.448Z,17.93
2019-02-27T05:14:39.833Z,17.93
2019-02-27T05:15:49.537Z,17.87
2019-02-27T05:16:59.694Z,17.95
2019-02-27T05:18:09.706Z,17.84
2019-02-27T05:19:20.101Z,17.86
2019-02-27T05:20:29.782Z,17.84
2019-02-27T05:21:39.212Z,17.86
2019-02-27T05:22:48.412Z,17.93
2019-02-27T05:23:57.864Z,17.87
2019-02-27T05:25:15.147Z,17.9
2019-02-27T05:26:29.569Z,17.87
2019-02-27T05:27:39.259Z,17.82
2019-02-27T05:28:48.944Z,17.89
2019-02-27T05:30:00.050Z,17.9
2019-02-27T05:31:09.830Z,17.9
2019-02-27T05:32:25.224Z,17.93
2019-02-27T05:33:42.360Z,17.9
2019-02-27T05:34:55.223Z,17.92
2019-02-27T05:36:04.916Z,17.87
2019-02-27T05:37:14.915Z,17.9
2019-02-27T05:38:24.905Z,17.86
2019-02-27T05:39:36.298Z,17.9
2019-02-27T05:40:46.240Z,17.92
2019-02-27T05:41:56.175Z,17.84
2019-02-27T05:43:06.203Z,17.79
2019-02-27T05:44:23.964Z,17.89
2019-02-27T05:45:35.800Z,17.82
2019-02-27T05:46:45.504Z,17.81
2019-02-27T05:47:55.438Z,17.78
2019-02-27T05:49:05.123Z,17.74
2019-02-27T05:50:15.109Z,17.89
2019-02-27T05:51:25.066Z,17.79
2019-02-27T05:52:34.747Z,17.78
2019-02-27T05:53:43.945Z,17.72
2019-02-27T05:54:53.900Z,17.79
2019-02-27T05:56:03.846Z,17.75
2019-02-27T05:57:13.792Z,17.78
2019-02-27T05:58:27.575Z,17.68
2019-02-27T05:59:37.257Z,17.74
2019-02-27T06:00:47.204Z,17.72
2019-02-27T06:01:57.172Z,17.74
2019-02-27T06:03:06.867Z,17.74
2019-02-27T06:04:18.127Z,17.72
2019-02-27T06:05:33.600Z,17.72
2019-02-27T06:06:47.532Z,17.71
2019-02-27T06:07:57.217Z,17.63
2019-02-27T06:09:12.587Z,17.72
2019-02-27T06:10:26.070Z,17.75
2019-02-27T06:11:37.996Z,17.71
2019-02-27T06:12:47.682Z,17.75
2019-02-27T06:13:57.381Z,17.77
2019-02-27T06:15:07.067Z,17.68
2019-02-27T06:16:16.750Z,17.62
2019-02-27T06:17:26.999Z,17.66
2019-02-27T06:18:48.342Z,17.64
2019-02-27T06:20:01.497Z,17.66
2019-02-27T06:21:17.882Z,17.7
2019-02-27T06:22:32.604Z,17.63
2019-02-27T06:23:43.069Z,17.64
2019-02-27T06:24:52.756Z,17.66
2019-02-27T06:26:04.878Z,17.7
2019-02-27T06:27:14.820Z,17.63
2019-02-27T06:28:24.502Z,17.64
2019-02-27T06:29:33.940Z,17.68
2019-02-27T06:30:43.633Z,17.68
2019-02-27T06:31:53.309Z,17.7
2019-02-27T06:33:03.021Z,17.68
2019-02-27T06:34:16.845Z,17.68
2019-02-27T06:35:33.207Z,17.66
2019-02-27T06:36:46.840Z,17.71
2019-02-27T06:37:56.282Z,17.74
2019-02-27T06:39:06.241Z,17.7
2019-02-27T06:40:18.048Z,17.7
2019-02-27T06:41:28.355Z,17.77
2019-02-27T06:42:38.296Z,17.71
2019-02-27T06:43:48.001Z,17.7
2019-02-27T06:44:57.722Z,17.75
2019-02-27T06:46:07.629Z,17.63
2019-02-27T06:47:17.064Z,17.68
2019-02-27T06:48:26.762Z,17.74
2019-02-27T06:49:36.457Z,17.77
2019-02-27T06:50:46.400Z,17.74
2019-02-27T06:51:56.337Z,17.71
2019-02-27T06:53:05.789Z,17.74
2019-02-27T06:54:23.413Z,17.7
2019-02-27T06:55:33.922Z,17.71
2019-02-27T06:56:43.444Z,17.77
2019-02-27T06:57:53.130Z,17.7
2019-02-27T06:59:02.607Z,17.77
2019-02-27T07:00:12.545Z,17.71
2019-02-27T07:01:22.494Z,17.71
2019-02-27T07:02:32.191Z,17.72
2019-02-27T07:03:41.378Z,17.72
2019-02-27T07:04:51.065Z,17.78
2019-02-27T07:06:01.018Z,17.71
2019-02-27T07:07:10.951Z,17.7
2019-02-27T07:08:20.639Z,17.79
2019-02-27T07:09:30.320Z,17.7
2019-02-27T07:10:40.265Z,17.75
2019-02-27T07:11:53.303Z,17.71
2019-02-27T07:13:03.247Z,17.72
2019-02-27T07:14:13.200Z,17.72
2019-02-27T07:15:23.143Z,17.66
2019-02-27T07:16:32.581Z,17.72
2019-02-27T07:17:42.293Z,17.66
2019-02-27T07:18:52.238Z,17.78
2019-02-27T07:20:01.929Z,17.79
2019-02-27T07:21:13.967Z,17.77
2019-02-27T07:22:23.905Z,17.77
2019-02-27T07:23:35.254Z,17.74
2019-02-27T07:24:45.299Z,17.77
2019-02-27T07:25:55.239Z,17.66
2019-02-27T07:27:04.688Z,17.72
2019-02-27T07:28:14.379Z,17.63
2019-02-27T07:29:30.440Z,17.68
2019-02-27T07:30:44.559Z,17.75
2019-02-27T07:31:59.336Z,17.77
2019-02-27T07:33:11.640Z,17.71
2019-02-27T07:34:21.091Z,17.82
2019-02-27T07:35:33.885Z,17.7
2019-02-27T07:36:43.994Z,17.72
2019-02-27T07:37:53.429Z,17.71
2019-02-27T07:39:03.377Z,17.78
2019-02-27T07:40:14.114Z,17.75
2019-02-27T07:41:25.719Z,17.72
2019-02-27T07:42:38.494Z,17.77
2019-02-27T07:43:48.185Z,17.78
2019-02-27T07:44:57.868Z,17.74
2019-02-27T07:46:07.905Z,17.77
2019-02-27T07:47:17.596Z,17.64
2019-02-27T07:48:27.434Z,17.78
2019-02-27T07:49:37.382Z,17.79
2019-02-27T07:50:50.838Z,17.74
2019-02-27T07:52:02.246Z,17.75
2019-02-27T07:53:12.185Z,17.7
2019-02-27T07:54:28.755Z,17.68
2019-02-27T07:55:38.718Z,17.75
2019-02-27T07:56:48.162Z,17.74
2019-02-27T07:58:03.186Z,17.74
2019-02-27T07:59:12.636Z,17.81
2019-02-27T08:00:26.055Z,17.66
2019-02-27T08:01:45.838Z,17.66
2019-02-27T08:02:55.526Z,17.75
2019-02-27T08:04:05.479Z,17.7
2019-02-27T08:05:15.179Z,17.66
2019-02-27T08:06:26.122Z,17.78
2019-02-27T08:07:36.073Z,17.74
2019-02-27T08:08:45.775Z,17.63
2019-02-27T08:09:55.458Z,17.75
2019-02-27T08:11:13.064Z,17.66
2019-02-27T08:12:24.848Z,17.72
2019-02-27T08:13:35.114Z,17.7
2019-02-27T08:14:44.799Z,17.75
2019-02-27T08:15:55.249Z,17.72
2019-02-27T08:17:19.622Z,17.72
2019-02-27T08:18:39.200Z,17.74
2019-02-27T08:19:49.960Z,17.75
2019-02-27T08:21:00.061Z,17.79
2019-02-27T08:22:10.014Z,17.71
2019-02-27T08:23:20.437Z,17.72
2019-02-27T08:24:31.398Z,17.78
2019-02-27T08:25:41.557Z,17.75
2019-02-27T08:26:51.603Z,17.72
2019-02-27T08:28:01.568Z,17.78
2019-02-27T08:29:11.252Z,17.75
2019-02-27T08:30:20.944Z,17.79
2019-02-27T08:31:34.517Z,17.74
2019-02-27T08:32:44.456Z,17.71
2019-02-27T08:33:53.654Z,17.78
2019-02-27T08:35:03.343Z,17.75
2019-02-27T08:36:12.539Z,17.75
2019-02-27T08:37:22.767Z,17.79
2019-02-27T08:38:32.474Z,17.82
2019-02-27T08:39:42.452Z,17.79
2019-02-27T08:40:52.152Z,17.74
2019-02-27T08:42:08.243Z,17.81
2019-02-27T08:43:17.945Z,17.9
2019-02-27T08:44:27.899Z,17.79
2019-02-27T08:45:37.333Z,17.9
2019-02-27T08:46:46.523Z,17.95
2019-02-27T08:47:58.242Z,17.89
2019-02-27T08:49:07.681Z,17.89
2019-02-27T08:50:18.468Z,17.87
2019-02-27T08:51:28.167Z,17.9
2019-02-27T08:52:38.120Z,17.9
2019-02-27T08:53:49.791Z,17.78
2019-02-27T08:55:08.092Z,17.89
2019-02-27T08:56:29.965Z,17.9
2019-02-27T08:57:39.840Z,17.87
2019-02-27T08:58:49.780Z,17.87
2019-02-27T08:59:59.734Z,17.86
2019-02-27T09:01:09.181Z,17.84
2019-02-27T09:02:18.868Z,17.86
2019-02-27T09:03:29.476Z,17.84
2019-02-27T09:04:47.659Z,17.9
2019-02-27T09:05:58.953Z,17.95
2019-02-27T09:07:08.896Z,17.9
2019-02-27T09:08:18.850Z,17.87
2019-02-27T09:09:28.799Z,17.89
2019-02-27T09:10:38.241Z,17.92
2019-02-27T09:11:48.191Z,17.93
2019-02-27T09:13:07.642Z,17.99
2019-02-27T09:14:17.348Z,17.92
2019-02-27T09:15:26.544Z,17.93
2019-02-27T09:16:36.233Z,17.89
2019-02-27T09:17:46.172Z,17.95
2019-02-27T09:18:55.888Z,17.95
2019-02-27T09:20:05.352Z,17.9
2019-02-27T09:21:15.046Z,17.97
2019-02-27T09:22:24.991Z,17.97
2019-02-27T09:23:34.934Z,17.96
2019-02-27T09:24:44.119Z,17.97
2019-02-27T09:26:05.052Z,17.95
2019-02-27T09:27:15.013Z,17.99
2019-02-27T09:28:24.958Z,17.96
2019-02-27T09:29:34.897Z,17.99
2019-02-27T09:30:44.589Z,17.96
2019-02-27T09:31:55.851Z,17.96
2019-02-27T09:33:05.786Z,18.02
2019-02-27T09:34:15.900Z,18.08
2019-02-27T09:35:25.794Z,18.03
2019-02-27T09:36:49.092Z,18
2019-02-27T09:37:59.146Z,18
2019-02-27T09:39:08.340Z,18.02
2019-02-27T09:40:18.031Z,18.02
2019-02-27T09:41:27.986Z,18.03
2019-02-27T09:42:37.685Z,18
2019-02-27T09:43:47.617Z,18.07
2019-02-27T09:44:57.557Z,18.08
2019-02-27T09:53:54.099Z,18.12
2019-02-27T09:55:03.792Z,18.07
2019-02-27T09:56:14.088Z,18.18
2019-02-27T09:57:23.774Z,18.1
2019-02-27T09:58:34.551Z,18.17
2019-02-27T09:59:46.979Z,18.21
2019-02-27T10:01:05.637Z,18.1
2019-02-27T10:02:17.316Z,18.15
2019-02-27T10:03:27.284Z,18.21
2019-02-27T10:04:38.177Z,18.17
2019-02-27T10:05:47.785Z,18.21
2019-02-27T10:06:57.612Z,18.14
2019-02-27T10:08:07.631Z,18.14
2019-02-27T10:09:17.685Z,18.21
2019-02-27T10:10:27.374Z,18.2
2019-02-27T10:11:37.313Z,18.17
2019-02-27T10:12:47.281Z,18.21
2019-02-27T10:13:56.969Z,18.26
2019-02-27T10:15:06.430Z,18.21
2019-02-27T10:16:15.870Z,18.2
2019-02-27T10:17:25.809Z,18.12
2019-02-27T10:18:36.244Z,18.17
2019-02-27T10:19:46.184Z,18.23
2019-02-27T10:20:55.881Z,18.2
2019-02-27T10:22:05.838Z,18.25
2019-02-27T10:23:15.839Z,18.25
2019-02-27T10:24:25.813Z,18.25
2019-02-27T10:25:37.529Z,18.12
2019-02-27T10:26:53.490Z,18.23
2019-02-27T10:28:08.029Z,18.21
2019-02-27T10:29:19.119Z,18.23
2019-02-27T10:30:28.838Z,18.12
2019-02-27T10:31:38.286Z,18.17
2019-02-27T10:32:47.732Z,18.18
2019-02-27T10:33:57.675Z,18.11
2019-02-27T10:35:07.852Z,18.17
2019-02-27T10:36:18.801Z,18.12
2019-02-27T10:37:29.011Z,18.23
2019-02-27T10:38:45.537Z,18.12
2019-02-27T10:39:55.448Z,18.12
2019-02-27T10:41:05.295Z,18.26
2019-02-27T10:42:14.479Z,18.25
2019-02-27T10:43:26.039Z,18.18
2019-02-27T10:44:38.421Z,18.33
2019-02-27T10:45:53.396Z,18.25
2019-02-27T10:47:05.415Z,18.3
2019-02-27T10:48:17.437Z,18.27
2019-02-27T10:49:27.374Z,18.3
2019-02-27T10:50:40.802Z,18.27
2019-02-27T10:51:50.751Z,18.29
2019-02-27T10:53:00.711Z,18.29
2019-02-27T10:54:10.153Z,18.27
2019-02-27T10:55:19.844Z,18.27
2019-02-27T10:56:31.976Z,18.32
2019-02-27T10:57:43.334Z,18.26
2019-02-27T10:58:52.782Z,18.26
2019-02-27T11:00:02.736Z,18.29
2019-02-27T11:01:12.683Z,18.3
2019-02-27T11:02:23.497Z,18.33
2019-02-27T11:03:33.348Z,18.29
2019-02-27T11:04:43.492Z,18.32
2019-02-27T11:06:00.078Z,18.32
2019-02-27T11:07:10.036Z,18.29
2019-02-27T11:08:23.016Z,18.3
2019-02-27T11:09:38.243Z,18.3
2019-02-27T11:10:50.334Z,18.32
2019-02-27T11:12:00.268Z,18.32
2019-02-27T11:13:11.604Z,18.37
2019-02-27T11:14:21.548Z,18.42
2019-02-27T11:15:31.241Z,18.39
2019-02-27T11:16:40.941Z,18.42
2019-02-27T11:17:50.892Z,18.36
2019-02-27T11:19:01.198Z,18.48
2019-02-27T11:20:11.139Z,18.37
2019-02-27T11:21:25.702Z,18.5
2019-02-27T11:22:36.649Z,18.37
2019-02-27T11:23:46.603Z,18.44
2019-02-27T11:24:57.318Z,18.48
2019-02-27T11:26:07.016Z,18.41
2019-02-27T11:27:19.234Z,18.44
2019-02-27T11:28:28.939Z,18.45
2019-02-27T11:29:38.893Z,18.47
2019-02-27T11:30:50.891Z,18.5
2019-02-27T11:32:01.041Z,18.44
2019-02-27T11:33:10.499Z,18.41
2019-02-27T11:34:37.824Z,18.41
2019-02-27T11:35:48.395Z,18.47
2019-02-27T11:36:58.088Z,18.42
2019-02-27T11:38:09.583Z,18.45
2019-02-27T11:39:19.529Z,18.51
2019-02-27T11:40:29.475Z,18.48
2019-02-27T11:41:39.206Z,18.52
2019-02-27T11:42:53.309Z,18.51
2019-02-27T11:44:02.760Z,18.54
2019-02-27T11:45:12.451Z,18.45
2019-02-27T11:46:22.155Z,18.57
2019-02-27T11:47:31.863Z,18.55
2019-02-27T11:48:41.548Z,18.5
2019-02-27T11:49:51.486Z,18.52
2019-02-27T11:51:01.165Z,18.54
2019-02-27T11:52:10.859Z,18.58
2019-02-27T11:53:20.546Z,18.57
2019-02-27T11:54:30.490Z,18.55
2019-02-27T11:55:39.919Z,18.54
2019-02-27T11:56:57.038Z,18.57
2019-02-27T11:58:10.280Z,18.54
2019-02-27T11:59:19.969Z,18.52
2019-02-27T12:00:29.663Z,18.65
2019-02-27T12:01:39.118Z,18.58
2019-02-27T12:02:48.805Z,18.57
2019-02-27T12:03:58.487Z,18.52
2019-02-27T12:05:08.432Z,18.6
2019-02-27T12:06:17.890Z,18.6
2019-02-27T12:07:27.340Z,18.55
2019-02-27T12:08:37.281Z,18.65
2019-02-27T12:09:47.214Z,18.6
2019-02-27T12:10:56.654Z,18.62
2019-02-27T12:12:06.358Z,18.69
2019-02-27T12:13:18.058Z,18.63
2019-02-27T12:14:27.497Z,18.65
2019-02-27T12:15:37.476Z,18.63
2019-02-27T12:16:56.184Z,18.63
2019-02-27T12:18:06.623Z,18.65
2019-02-27T12:19:16.070Z,18.66
2019-02-27T12:20:25.759Z,18.65
2019-02-27T12:21:35.196Z,18.7
2019-02-27T12:22:44.412Z,18.66
2019-02-27T12:23:54.354Z,18.65
2019-02-27T12:25:03.801Z,18.7
2019-02-27T12:26:13.774Z,18.67
2019-02-27T12:27:52.432Z,18.65
2019-02-27T12:29:01.637Z,18.67
2019-02-27T12:30:11.088Z,18.7
2019-02-27T12:31:20.540Z,18.7
2019-02-27T12:32:29.974Z,18.67
2019-02-27T12:33:39.416Z,18.72
2019-02-27T12:34:49.363Z,18.72
2019-02-27T12:35:59.067Z,18.67
2019-02-27T12:37:27.931Z,18.75
2019-02-27T12:38:46.407Z,18.78
2019-02-27T12:39:56.139Z,18.76
2019-02-27T12:41:06.081Z,18.76
2019-02-27T12:42:16.019Z,18.76
2019-02-27T12:43:25.219Z,18.84
2019-02-27T12:44:36.972Z,18.82
2019-02-27T12:45:46.969Z,18.8
2019-02-27T12:46:56.658Z,18.82
2019-02-27T12:48:06.630Z,18.73
2019-02-27T12:49:22.145Z,18.78
2019-02-27T12:50:35.592Z,18.78
2019-02-27T12:51:45.029Z,18.9
2019-02-27T12:52:54.778Z,18.82
2019-02-27T12:54:04.465Z,18.85
2019-02-27T12:55:14.152Z,18.81
2019-02-27T12:56:25.506Z,18.82
2019-02-27T12:57:35.444Z,18.87
2019-02-27T12:58:44.884Z,18.87
2019-02-27T12:59:54.823Z,18.88
2019-02-27T13:01:04.529Z,18.84
2019-02-27T13:02:15.726Z,18.82
2019-02-27T13:03:31.229Z,18.81
2019-02-27T13:04:40.680Z,18.84
2019-02-27T13:05:50.419Z,18.82
2019-02-27T13:07:00.416Z,18.87
2019-02-27T13:08:11.312Z,18.92
2019-02-27T13:09:26.803Z,18.92
2019-02-27T13:10:39.042Z,18.98
2019-02-27T13:11:49.788Z,19.02
2019-02-27T13:12:59.739Z,19.06
2019-02-27T13:14:09.220Z,19.07
2019-02-27T13:15:18.900Z,19.19
2019-02-27T13:16:28.340Z,19.22
2019-02-27T13:17:37.776Z,19.16
2019-02-27T13:18:48.959Z,19.22
2019-02-27T13:19:58.651Z,19.28
2019-02-27T13:21:10.242Z,19.28
2019-02-27T13:22:26.218Z,19.4
2019-02-27T13:23:44.780Z,19.37
2019-02-27T13:24:55.686Z,19.44
2019-02-27T13:26:05.946Z,19.41
2019-02-27T13:27:15.398Z,19.43
2019-02-27T13:28:24.892Z,19.43
2019-02-27T13:29:34.858Z,19.46
2019-02-27T13:30:46.892Z,19.63
2019-02-27T13:31:59.019Z,19.65
2019-02-27T13:33:08.707Z,19.61
2019-02-27T13:34:19.362Z,19.61
2019-02-27T13:35:30.890Z,19.62
2019-02-27T13:36:42.061Z,19.74
2019-02-27T13:37:52.029Z,19.65
2019-02-27T13:39:01.878Z,19.65
2019-02-27T13:40:12.587Z,19.62
2019-02-27T13:41:23.674Z,19.69
2019-02-27T13:42:33.540Z,19.71
2019-02-27T13:43:42.736Z,19.74
2019-02-27T13:44:52.185Z,19.77
2019-02-27T13:46:02.179Z,19.71
2019-02-27T13:47:11.898Z,19.78
2019-02-27T13:48:21.588Z,19.77
2019-02-27T13:49:31.531Z,19.84
2019-02-27T13:50:40.967Z,19.76
2019-02-27T13:51:50.916Z,19.86
2019-02-27T13:53:00.861Z,19.86
2019-02-27T13:54:10.052Z,19.94
2019-02-27T13:55:19.552Z,19.87
2019-02-27T13:56:32.205Z,19.95
2019-02-27T13:57:41.911Z,19.87
2019-02-27T13:58:51.890Z,19.94
2019-02-27T14:00:01.873Z,19.91
2019-02-27T14:01:12.150Z,19.98
2019-02-27T14:02:22.142Z,20.05
2019-02-27T14:03:32.152Z,19.96
2019-02-27T14:04:42.461Z,20.02
2019-02-27T14:05:52.141Z,20.11
2019-02-27T14:07:01.832Z,20.1
2019-02-27T14:08:11.550Z,20.02
2019-02-27T14:09:21.529Z,20.02
2019-02-27T14:10:31.224Z,20.05
2019-02-27T14:11:40.678Z,20.1
2019-02-27T14:12:50.393Z,20.05
2019-02-27T14:14:00.570Z,20.05
2019-02-27T14:15:10.590Z,20.16
2019-02-27T14:16:20.552Z,20.2
2019-02-27T14:17:30.243Z,20.18
2019-02-27T14:18:40.201Z,20.17
2019-02-27T14:19:49.395Z,20.18
2019-02-27T14:21:03.824Z,20.28
2019-02-27T14:22:13.528Z,20.33
2019-02-27T14:23:23.215Z,20.36
2019-02-27T14:24:32.910Z,20.26
2019-02-27T14:25:43.549Z,20.38
2019-02-27T14:26:52.987Z,20.47
2019-02-27T14:28:02.689Z,20.47
2019-02-27T14:29:12.623Z,20.55
2019-02-27T14:30:22.074Z,20.57
2019-02-27T14:31:32.069Z,20.55
2019-02-27T14:32:41.773Z,20.58
2019-02-27T14:33:58.577Z,20.62
2019-02-27T14:35:08.031Z,20.55
2019-02-27T14:36:17.964Z,20.59
2019-02-27T14:37:27.895Z,20.5
2019-02-27T14:38:37.587Z,20.51
2019-02-27T14:39:47.032Z,20.52
2019-02-27T14:40:56.731Z,20.51
2019-02-27T14:42:06.504Z,20.5
2019-02-27T14:43:16.211Z,20.47
2019-02-27T14:44:25.920Z,20.51
2019-02-27T14:45:43.318Z,20.51
2019-02-27T14:46:53.003Z,20.52
2019-02-27T14:48:04.509Z,20.52
2019-02-27T14:49:16.304Z,20.5
2019-02-27T14:50:25.992Z,20.61
2019-02-27T14:51:41.116Z,20.61
2019-02-27T14:52:52.488Z,20.57
2019-02-27T14:54:01.677Z,20.64
2019-02-27T14:55:11.362Z,20.57
2019-02-27T14:56:21.307Z,20.58
2019-02-27T14:57:31.248Z,20.58
2019-02-27T14:58:40.683Z,20.64
2019-02-27T14:59:50.117Z,20.66
2019-02-27T15:00:59.314Z,20.58
2019-02-27T15:02:09.272Z,20.7
2019-02-27T15:03:18.963Z,20.58
2019-02-27T15:04:28.657Z,20.73
2019-02-27T15:05:45.643Z,20.66
2019-02-27T15:06:56.233Z,20.64
2019-02-27T15:08:05.931Z,20.59
2019-02-27T15:09:15.633Z,20.66
2019-02-27T15:10:25.574Z,20.61
2019-02-27T15:11:35.971Z,20.67
2019-02-27T15:12:45.787Z,20.67
2019-02-27T15:14:01.943Z,20.72
2019-02-27T15:15:14.113Z,20.67
2019-02-27T15:16:24.323Z,20.67
2019-02-27T15:17:35.163Z,20.66
2019-02-27T15:18:44.853Z,20.67
2019-02-27T15:19:54.568Z,20.72
2019-02-27T15:21:12.940Z,20.67
2019-02-27T15:22:26.081Z,20.66
2019-02-27T15:23:35.589Z,20.67
2019-02-27T15:24:45.031Z,20.69
2019-02-27T15:25:54.478Z,20.7
2019-02-27T15:27:04.429Z,20.66